sensor_id;sensor_type;location;lat;lon;timestamp;pressure;altitude;pressure_sealevel;temperature;humidity
72640;BME280;60683;51.730;8.762;2023-07-29T00:01:00;99600.34;;;17.62;91.95
72640;BME280;60683;51.730;8.762;2023-07-29T00:03:28;99593.16;;;17.71;91.49
72640;BME280;60683;51.730;8.762;2023-07-29T00:05:56;99592.00;;;17.77;91.17
72640;BME280;60683;51.730;8.762;2023-07-29T00:08:23;99594.94;;;17.81;90.67
72640;BME280;60683;51.730;8.762;2023-07-29T00:10:52;99601.78;;;17.78;90.86
72640;BME280;60683;51.730;8.762;2023-07-29T00:13:20;99606.91;;;17.80;90.54
72640;BME280;60683;51.730;8.762;2023-07-29T00:15:47;99596.84;;;17.80;90.69
72640;BME280;60683;51.730;8.762;2023-07-29T00:18:14;99597.06;;;17.84;90.66
72640;BME280;60683;51.730;8.762;2023-07-29T00:20:42;99594.28;;;17.89;90.85
72640;BME280;60683;51.730;8.762;2023-07-29T00:23:09;99595.38;;;17.88;90.90
72640;BME280;60683;51.730;8.762;2023-07-29T00:25:36;99587.06;;;17.98;90.74
72640;BME280;60683;51.730;8.762;2023-07-29T00:28:05;99588.84;;;17.89;91.05
72640;BME280;60683;51.730;8.762;2023-07-29T00:30:33;99583.41;;;17.89;91.43
72640;BME280;60683;51.730;8.762;2023-07-29T00:33:00;99582.59;;;17.89;90.84
72640;BME280;60683;51.730;8.762;2023-07-29T00:35:28;99592.06;;;17.91;90.71
72640;BME280;60683;51.730;8.762;2023-07-29T00:37:55;99582.88;;;17.87;90.59
72640;BME280;60683;51.730;8.762;2023-07-29T00:40:23;99581.72;;;17.93;90.86
72640;BME280;60683;51.730;8.762;2023-07-29T00:42:50;99579.50;;;17.95;90.72
72640;BME280;60683;51.730;8.762;2023-07-29T00:45:19;99572.66;;;18.16;90.39
72640;BME280;60683;51.730;8.762;2023-07-29T00:47:46;99565.16;;;18.41;89.30
72640;BME280;60683;51.730;8.762;2023-07-29T00:50:15;99569.72;;;18.59;88.58
72640;BME280;60683;51.730;8.762;2023-07-29T00:52:42;99565.53;;;18.67;87.38
72640;BME280;60683;51.730;8.762;2023-07-29T00:55:10;99569.88;;;18.81;87.21
72640;BME280;60683;51.730;8.762;2023-07-29T00:57:38;99561.31;;;18.88;86.92
72640;BME280;60683;51.730;8.762;2023-07-29T01:00:07;99565.34;;;18.91;86.92
72640;BME280;60683;51.730;8.762;2023-07-29T01:02:36;99570.19;;;18.94;86.69
72640;BME280;60683;51.730;8.762;2023-07-29T01:05:05;99567.66;;;18.97;87.40
72640;BME280;60683;51.730;8.762;2023-07-29T01:07:38;99576.22;;;18.91;88.26
72640;BME280;60683;51.730;8.762;2023-07-29T01:10:10;99573.59;;;18.85;88.09
72640;BME280;60683;51.730;8.762;2023-07-29T01:12:47;99572.00;;;18.71;88.74
72640;BME280;60683;51.730;8.762;2023-07-29T01:15:19;99568.66;;;18.60;89.59
72640;BME280;60683;51.730;8.762;2023-07-29T01:17:52;99567.09;;;18.54;89.46
72640;BME280;60683;51.730;8.762;2023-07-29T01:20:21;99573.94;;;18.51;90.92
72640;BME280;60683;51.730;8.762;2023-07-29T01:22:51;99564.97;;;18.51;91.39
72640;BME280;60683;51.730;8.762;2023-07-29T01:25:20;99561.44;;;18.50;91.87
72640;BME280;60683;51.730;8.762;2023-07-29T01:27:49;99569.41;;;18.47;92.17
72640;BME280;60683;51.730;8.762;2023-07-29T01:30:18;99563.94;;;18.47;91.84
72640;BME280;60683;51.730;8.762;2023-07-29T01:32:51;99555.06;;;18.41;93.15
72640;BME280;60683;51.730;8.762;2023-07-29T01:35:24;99552.03;;;18.43;92.65
72640;BME280;60683;51.730;8.762;2023-07-29T01:37:53;99558.59;;;18.42;92.53
72640;BME280;60683;51.730;8.762;2023-07-29T01:40:25;99546.41;;;18.39;92.71
72640;BME280;60683;51.730;8.762;2023-07-29T01:42:53;99551.91;;;18.34;92.97
72640;BME280;60683;51.730;8.762;2023-07-29T01:45:23;99556.13;;;18.27;93.22
72640;BME280;60683;51.730;8.762;2023-07-29T01:47:50;99555.41;;;18.21;93.45
72640;BME280;60683;51.730;8.762;2023-07-29T01:50:18;99542.44;;;18.18;93.80
72640;BME280;60683;51.730;8.762;2023-07-29T01:52:45;99543.03;;;18.29;93.80
72640;BME280;60683;51.730;8.762;2023-07-29T01:55:13;99542.94;;;18.34;93.68
72640;BME280;60683;51.730;8.762;2023-07-29T01:57:42;99539.13;;;18.35;93.83
72640;BME280;60683;51.730;8.762;2023-07-29T02:00:11;99533.78;;;18.30;93.65
72640;BME280;60683;51.730;8.762;2023-07-29T02:02:38;99528.31;;;18.30;94.17
72640;BME280;60683;51.730;8.762;2023-07-29T02:05:06;99535.28;;;18.36;94.13
72640;BME280;60683;51.730;8.762;2023-07-29T02:07:34;99539.13;;;18.35;94.60
72640;BME280;60683;51.730;8.762;2023-07-29T02:10:02;99537.59;;;18.29;94.39
72640;BME280;60683;51.730;8.762;2023-07-29T02:12:29;99532.16;;;18.29;94.23
72640;BME280;60683;51.730;8.762;2023-07-29T02:14:58;99537.16;;;18.22;94.96
72640;BME280;60683;51.730;8.762;2023-07-29T02:17:25;99533.56;;;18.26;94.96
72640;BME280;60683;51.730;8.762;2023-07-29T02:19:53;99537.09;;;18.27;94.77
72640;BME280;60683;51.730;8.762;2023-07-29T02:22:20;99539.41;;;18.19;94.57
72640;BME280;60683;51.730;8.762;2023-07-29T02:24:48;99536.06;;;18.23;94.64
72640;BME280;60683;51.730;8.762;2023-07-29T02:27:15;99528.63;;;18.28;95.21
72640;BME280;60683;51.730;8.762;2023-07-29T02:29:42;99529.44;;;18.29;95.25
72640;BME280;60683;51.730;8.762;2023-07-29T02:32:11;99526.19;;;18.27;95.37
72640;BME280;60683;51.730;8.762;2023-07-29T02:34:39;99537.78;;;18.18;95.48
72640;BME280;60683;51.730;8.762;2023-07-29T02:37:06;99534.97;;;18.24;95.67
72640;BME280;60683;51.730;8.762;2023-07-29T02:39:34;99528.03;;;18.31;95.54
72640;BME280;60683;51.730;8.762;2023-07-29T02:42:01;99532.66;;;18.31;95.34
72640;BME280;60683;51.730;8.762;2023-07-29T02:44:29;99523.19;;;18.14;95.81
72640;BME280;60683;51.730;8.762;2023-07-29T02:46:57;99514.00;;;18.10;96.11
72640;BME280;60683;51.730;8.762;2023-07-29T02:49:26;99516.13;;;18.13;95.96
72640;BME280;60683;51.730;8.762;2023-07-29T02:51:53;99523.88;;;18.20;96.05
72640;BME280;60683;51.730;8.762;2023-07-29T02:54:21;99518.53;;;18.15;96.01
72640;BME280;60683;51.730;8.762;2023-07-29T02:56:49;99512.28;;;18.14;96.44
72640;BME280;60683;51.730;8.762;2023-07-29T02:59:19;99507.66;;;18.15;96.42
72640;BME280;60683;51.730;8.762;2023-07-29T03:01:46;99505.44;;;18.17;96.40
72640;BME280;60683;51.730;8.762;2023-07-29T03:04:14;99507.38;;;18.16;96.59
72640;BME280;60683;51.730;8.762;2023-07-29T03:06:42;99509.78;;;18.18;96.71
72640;BME280;60683;51.730;8.762;2023-07-29T03:09:10;99504.22;;;18.23;96.47
72640;BME280;60683;51.730;8.762;2023-07-29T03:11:37;99496.88;;;18.24;96.49
72640;BME280;60683;51.730;8.762;2023-07-29T03:14:05;99498.41;;;18.30;96.20
72640;BME280;60683;51.730;8.762;2023-07-29T03:16:32;99496.47;;;18.30;96.22
72640;BME280;60683;51.730;8.762;2023-07-29T03:18:59;99491.25;;;18.34;95.99
72640;BME280;60683;51.730;8.762;2023-07-29T03:21:27;99491.25;;;18.34;96.16
72640;BME280;60683;51.730;8.762;2023-07-29T03:23:56;99486.91;;;18.33;96.29
72640;BME280;60683;51.730;8.762;2023-07-29T03:26:24;99492.97;;;18.30;96.76
72640;BME280;60683;51.730;8.762;2023-07-29T03:28:51;99489.63;;;18.33;96.95
72640;BME280;60683;51.730;8.762;2023-07-29T03:31:19;99498.09;;;18.31;97.40
72640;BME280;60683;51.730;8.762;2023-07-29T03:33:46;99486.19;;;18.27;97.91
72640;BME280;60683;51.730;8.762;2023-07-29T03:36:15;99488.63;;;18.29;98.15
72640;BME280;60683;51.730;8.762;2023-07-29T03:38:42;99491.63;;;18.27;98.61
72640;BME280;60683;51.730;8.762;2023-07-29T03:41:12;99485.69;;;18.25;98.76
72640;BME280;60683;51.730;8.762;2023-07-29T03:43:39;99487.09;;;18.23;98.96
72640;BME280;60683;51.730;8.762;2023-07-29T03:46:07;99478.44;;;18.20;99.57
72640;BME280;60683;51.730;8.762;2023-07-29T03:48:34;99476.50;;;18.21;99.89
72640;BME280;60683;51.730;8.762;2023-07-29T03:51:02;99483.38;;;18.18;99.86
72640;BME280;60683;51.730;8.762;2023-07-29T03:53:30;99476.34;;;18.17;99.96
72640;BME280;60683;51.730;8.762;2023-07-29T03:55:58;99475.22;;;18.18;100.00
72640;BME280;60683;51.730;8.762;2023-07-29T03:58:26;99476.72;;;18.11;100.00
72640;BME280;60683;51.730;8.762;2023-07-29T04:00:54;99467.44;;;18.12;100.00
72640;BME280;60683;51.730;8.762;2023-07-29T04:03:21;99462.59;;;18.09;99.93
72640;BME280;60683;51.730;8.762;2023-07-29T04:05:49;99476.50;;;18.07;99.88
72640;BME280;60683;51.730;8.762;2023-07-29T04:08:18;99476.09;;;18.00;100.00
72640;BME280;60683;51.730;8.762;2023-07-29T04:10:46;99478.59;;;17.97;100.00
72640;BME280;60683;51.730;8.762;2023-07-29T04:13:13;99487.97;;;18.04;100.00
72640;BME280;60683;51.730;8.762;2023-07-29T04:15:43;99493.72;;;18.03;100.00
72640;BME280;60683;51.730;8.762;2023-07-29T04:18:10;99482.53;;;18.04;100.00
72640;BME280;60683;51.730;8.762;2023-07-29T04:20:37;99486.88;;;18.05;100.00
72640;BME280;60683;51.730;8.762;2023-07-29T04:23:05;99481.44;;;18.05;100.00
72640;BME280;60683;51.730;8.762;2023-07-29T04:25:33;99484.75;;;18.02;100.00
72640;BME280;60683;51.730;8.762;2023-07-29T04:28:00;99479.81;;;18.04;100.00
72640;BME280;60683;51.730;8.762;2023-07-29T04:30:29;99481.72;;;18.04;100.00
72640;BME280;60683;51.730;8.762;2023-07-29T04:32:58;99486.38;;;18.03;100.00
72640;BME280;60683;51.730;8.762;2023-07-29T04:35:26;99485.56;;;18.03;100.00
72640;BME280;60683;51.730;8.762;2023-07-29T04:37:53;99480.41;;;18.01;100.00
72640;BME280;60683;51.730;8.762;2023-07-29T04:40:21;99473.38;;;18.00;100.00
72640;BME280;60683;51.730;8.762;2023-07-29T04:42:50;99475.06;;;17.96;100.00
72640;BME280;60683;51.730;8.762;2023-07-29T04:45:18;99464.78;;;17.93;100.00
72640;BME280;60683;51.730;8.762;2023-07-29T04:47:46;99463.09;;;17.97;100.00
72640;BME280;60683;51.730;8.762;2023-07-29T04:50:15;99465.00;;;17.97;100.00
72640;BME280;60683;51.730;8.762;2023-07-29T04:52:42;99470.44;;;17.97;100.00
72640;BME280;60683;51.730;8.762;2023-07-29T04:55:10;99468.81;;;17.96;100.00
72640;BME280;60683;51.730;8.762;2023-07-29T04:57:37;99469.84;;;18.00;100.00
72640;BME280;60683;51.730;8.762;2023-07-29T05:00:06;99466.72;;;18.06;100.00
72640;BME280;60683;51.730;8.762;2023-07-29T05:02:33;99465.03;;;18.10;100.00
72640;BME280;60683;51.730;8.762;2023-07-29T05:05:01;99454.16;;;18.10;100.00
72640;BME280;60683;51.730;8.762;2023-07-29T05:07:31;99456.38;;;18.08;100.00
72640;BME280;60683;51.730;8.762;2023-07-29T05:09:59;99456.19;;;18.18;100.00
72640;BME280;60683;51.730;8.762;2023-07-29T05:12:26;99452.34;;;18.19;100.00
72640;BME280;60683;51.730;8.762;2023-07-29T05:14:55;99470.25;;;18.20;100.00
72640;BME280;60683;51.730;8.762;2023-07-29T05:17:23;99461.50;;;18.24;100.00
72640;BME280;60683;51.730;8.762;2023-07-29T05:19:50;99474.13;;;18.19;100.00
72640;BME280;60683;51.730;8.762;2023-07-29T05:22:18;99480.56;;;18.24;100.00
72640;BME280;60683;51.730;8.762;2023-07-29T05:24:48;99477.31;;;18.22;100.00
72640;BME280;60683;51.730;8.762;2023-07-29T05:27:15;99459.50;;;18.29;100.00
72640;BME280;60683;51.730;8.762;2023-07-29T05:29:43;99461.81;;;18.36;100.00
72640;BME280;60683;51.730;8.762;2023-07-29T05:32:10;99456.50;;;18.44;100.00
72640;BME280;60683;51.730;8.762;2023-07-29T05:34:38;99459.31;;;18.53;99.77
72640;BME280;60683;51.730;8.762;2023-07-29T05:37:05;99457.53;;;18.62;98.94
72640;BME280;60683;51.730;8.762;2023-07-29T05:39:33;99451.41;;;18.70;98.94
72640;BME280;60683;51.730;8.762;2023-07-29T05:42:02;99457.41;;;18.81;98.50
72640;BME280;60683;51.730;8.762;2023-07-29T05:44:29;99457.50;;;18.90;98.54
72640;BME280;60683;51.730;8.762;2023-07-29T05:46:57;99455.91;;;18.89;98.56
72640;BME280;60683;51.730;8.762;2023-07-29T05:49:25;99467.88;;;19.01;97.30
72640;BME280;60683;51.730;8.762;2023-07-29T05:51:52;99460.84;;;19.00;96.96
72640;BME280;60683;51.730;8.762;2023-07-29T05:54:20;99462.03;;;19.08;97.47
72640;BME280;60683;51.730;8.762;2023-07-29T05:56:47;99456.97;;;19.15;97.35
72640;BME280;60683;51.730;8.762;2023-07-29T05:59:16;99456.97;;;19.15;96.77
72640;BME280;60683;51.730;8.762;2023-07-29T06:01:43;99471.41;;;19.15;97.01
72640;BME280;60683;51.730;8.762;2023-07-29T06:04:11;99470.66;;;19.24;96.63
72640;BME280;60683;51.730;8.762;2023-07-29T06:06:38;99473.53;;;19.18;96.15
72640;BME280;60683;51.730;8.762;2023-07-29T06:09:06;99483.97;;;19.25;96.19
72640;BME280;60683;51.730;8.762;2023-07-29T06:11:33;99480.88;;;19.18;95.66
72640;BME280;60683;51.730;8.762;2023-07-29T06:14:01;99477.66;;;19.16;95.52
72640;BME280;60683;51.730;8.762;2023-07-29T06:16:29;99480.88;;;19.18;95.52
72640;BME280;60683;51.730;8.762;2023-07-29T06:18:57;99482.59;;;19.14;94.76
72640;BME280;60683;51.730;8.762;2023-07-29T06:21:24;99485.34;;;19.00;94.64
72640;BME280;60683;51.730;8.762;2023-07-29T06:23:52;99477.06;;;18.92;94.93
72640;BME280;60683;51.730;8.762;2023-07-29T06:26:19;99486.75;;;18.98;94.91
72640;BME280;60683;51.730;8.762;2023-07-29T06:28:47;99478.59;;;18.98;94.72
72640;BME280;60683;51.730;8.762;2023-07-29T06:31:14;99477.75;;;19.11;94.55
72640;BME280;60683;51.730;8.762;2023-07-29T06:33:44;99473.81;;;19.17;94.97
72640;BME280;60683;51.730;8.762;2023-07-29T06:36:12;99475.78;;;19.25;94.99
72640;BME280;60683;51.730;8.762;2023-07-29T06:38:40;99481.09;;;19.44;94.18
72640;BME280;60683;51.730;8.762;2023-07-29T06:41:07;99484.31;;;19.60;93.18
72640;BME280;60683;51.730;8.762;2023-07-29T06:43:35;99479.66;;;19.60;92.94
72640;BME280;60683;51.730;8.762;2023-07-29T06:46:02;99475.16;;;19.56;93.18
72640;BME280;60683;51.730;8.762;2023-07-29T06:48:30;99474.34;;;19.41;93.23
72640;BME280;60683;51.730;8.762;2023-07-29T06:51:01;99471.41;;;19.52;93.12
72640;BME280;60683;51.730;8.762;2023-07-29T06:53:28;99468.66;;;19.65;93.50
72640;BME280;60683;51.730;8.762;2023-07-29T06:55:56;99471.13;;;19.75;93.78
72640;BME280;60683;51.730;8.762;2023-07-29T06:58:24;99466.16;;;19.77;93.77
72640;BME280;60683;51.730;8.762;2023-07-29T07:00:51;99475.13;;;19.78;92.49
72640;BME280;60683;51.730;8.762;2023-07-29T07:03:18;99468.75;;;19.82;93.71
72640;BME280;60683;51.730;8.762;2023-07-29T07:05:46;99477.13;;;19.86;93.16
72640;BME280;60683;51.730;8.762;2023-07-29T07:08:15;99484.19;;;19.65;92.83
72640;BME280;60683;51.730;8.762;2023-07-29T07:10:42;99491.06;;;19.62;92.89
72640;BME280;60683;51.730;8.762;2023-07-29T07:13:10;99496.44;;;19.76;93.31
72640;BME280;60683;51.730;8.762;2023-07-29T07:15:37;99498.34;;;19.67;93.13
72640;BME280;60683;51.730;8.762;2023-07-29T07:18:04;99510.09;;;19.54;93.29
72640;BME280;60683;51.730;8.762;2023-07-29T07:20:32;99495.25;;;19.32;93.94
72640;BME280;60683;51.730;8.762;2023-07-29T07:22:59;99510.59;;;19.28;95.19
72640;BME280;60683;51.730;8.762;2023-07-29T07:25:28;99516.25;;;19.32;95.47
72640;BME280;60683;51.730;8.762;2023-07-29T07:27:55;99517.97;;;19.28;95.70
72640;BME280;60683;51.730;8.762;2023-07-29T07:30:23;99518.19;;;19.31;95.82
72640;BME280;60683;51.730;8.762;2023-07-29T07:32:50;99515.56;;;19.26;95.98
72640;BME280;60683;51.730;8.762;2023-07-29T07:35:18;99524.91;;;19.47;96.20
72640;BME280;60683;51.730;8.762;2023-07-29T07:37:46;99519.16;;;19.63;94.99
72640;BME280;60683;51.730;8.762;2023-07-29T07:40:13;99517.16;;;19.77;93.77
72640;BME280;60683;51.730;8.762;2023-07-29T07:42:42;99521.50;;;19.78;93.32
72640;BME280;60683;51.730;8.762;2023-07-29T07:45:10;99516.06;;;20.00;93.21
72640;BME280;60683;51.730;8.762;2023-07-29T07:47:37;99522.63;;;20.22;91.99
72640;BME280;60683;51.730;8.762;2023-07-29T07:50:05;99527.78;;;20.32;91.80
72640;BME280;60683;51.730;8.762;2023-07-29T07:52:33;99523.84;;;20.38;90.97
72640;BME280;60683;51.730;8.762;2023-07-29T07:55:00;99525.28;;;20.13;90.32
72640;BME280;60683;51.730;8.762;2023-07-29T07:57:28;99521.94;;;20.16;90.24
72640;BME280;60683;51.730;8.762;2023-07-29T07:59:56;99521.75;;;20.12;90.57
72640;BME280;60683;51.730;8.762;2023-07-29T08:02:24;99519.03;;;20.12;89.95
72640;BME280;60683;51.730;8.762;2023-07-29T08:04:51;99507.81;;;19.92;88.00
72640;BME280;60683;51.730;8.762;2023-07-29T08:07:18;99522.31;;;19.78;88.93
72640;BME280;60683;51.730;8.762;2023-07-29T08:09:46;99523.50;;;19.64;87.94
72640;BME280;60683;51.730;8.762;2023-07-29T08:12:14;99536.22;;;19.55;89.19
72640;BME280;60683;51.730;8.762;2023-07-29T08:14:41;99534.47;;;19.72;88.78
72640;BME280;60683;51.730;8.762;2023-07-29T08:17:10;99525.72;;;19.62;89.09
72640;BME280;60683;51.730;8.762;2023-07-29T08:19:37;99528.44;;;19.62;87.59
72640;BME280;60683;51.730;8.762;2023-07-29T08:22:05;99519.41;;;19.75;86.30
72640;BME280;60683;51.730;8.762;2023-07-29T08:24:32;99525.69;;;19.75;86.26
72640;BME280;60683;51.730;8.762;2023-07-29T08:27:00;99528.06;;;19.77;86.97
72640;BME280;60683;51.730;8.762;2023-07-29T08:29:27;99531.28;;;19.79;85.71
72640;BME280;60683;51.730;8.762;2023-07-29T08:31:54;99544.06;;;19.70;84.88
72640;BME280;60683;51.730;8.762;2023-07-29T08:34:23;99528.06;;;19.77;83.84
72640;BME280;60683;51.730;8.762;2023-07-29T08:36:50;99539.72;;;19.91;83.78
72640;BME280;60683;51.730;8.762;2023-07-29T08:39:18;99533.59;;;20.08;82.95
72640;BME280;60683;51.730;8.762;2023-07-29T08:41:49;99542.41;;;20.05;82.58
72640;BME280;60683;51.730;8.762;2023-07-29T08:44:21;99544.53;;;20.08;82.38
72640;BME280;60683;51.730;8.762;2023-07-29T08:46:49;99538.38;;;20.02;82.04
72640;BME280;60683;51.730;8.762;2023-07-29T08:49:18;99537.25;;;20.03;81.91
72640;BME280;60683;51.730;8.762;2023-07-29T08:51:47;99535.19;;;20.31;81.82
72640;BME280;60683;51.730;8.762;2023-07-29T08:54:15;99530.97;;;20.47;80.53
72640;BME280;60683;51.730;8.762;2023-07-29T08:56:43;99530.13;;;20.69;79.36
72640;BME280;60683;51.730;8.762;2023-07-29T08:59:11;99534.88;;;20.55;80.11
72640;BME280;60683;51.730;8.762;2023-07-29T09:01:39;99535.13;;;20.45;79.23
72640;BME280;60683;51.730;8.762;2023-07-29T09:04:06;99535.34;;;20.26;80.05
72640;BME280;60683;51.730;8.762;2023-07-29T09:06:34;99537.94;;;20.09;79.87
72640;BME280;60683;51.730;8.762;2023-07-29T09:09:04;99541.22;;;19.97;79.79
72640;BME280;60683;51.730;8.762;2023-07-29T09:11:32;99533.03;;;19.97;79.59
72640;BME280;60683;51.730;8.762;2023-07-29T09:14:00;99547.06;;;20.27;78.82
72640;BME280;60683;51.730;8.762;2023-07-29T09:16:27;99540.78;;;20.26;76.15
72640;BME280;60683;51.730;8.762;2023-07-29T09:18:55;99551.66;;;20.17;77.04
72640;BME280;60683;51.730;8.762;2023-07-29T09:21:24;99548.53;;;20.55;76.03
72640;BME280;60683;51.730;8.762;2023-07-29T09:23:53;99546.91;;;20.94;72.72
72640;BME280;60683;51.730;8.762;2023-07-29T09:26:23;99537.66;;;21.12;72.59
72640;BME280;60683;51.730;8.762;2023-07-29T09:28:52;99549.44;;;20.81;72.15
72640;BME280;60683;51.730;8.762;2023-07-29T09:31:20;99549.44;;;21.21;69.91
72640;BME280;60683;51.730;8.762;2023-07-29T09:33:48;99549.16;;;21.31;68.25
72640;BME280;60683;51.730;8.762;2023-07-29T09:36:15;99554.75;;;21.26;69.11
72640;BME280;60683;51.730;8.762;2023-07-29T09:38:44;99546.25;;;21.45;68.57
72640;BME280;60683;51.730;8.762;2023-07-29T09:41:11;99544.84;;;21.65;67.17
72640;BME280;60683;51.730;8.762;2023-07-29T09:43:41;99558.47;;;21.30;67.54
72640;BME280;60683;51.730;8.762;2023-07-29T09:46:08;99547.13;;;21.06;68.35
72640;BME280;60683;51.730;8.762;2023-07-29T09:48:38;99549.94;;;21.32;68.30
72640;BME280;60683;51.730;8.762;2023-07-29T09:51:10;99552.84;;;21.27;67.57
72640;BME280;60683;51.730;8.762;2023-07-29T09:53:42;99548.59;;;21.12;66.86
72640;BME280;60683;51.730;8.762;2023-07-29T09:56:10;99545.94;;;21.46;68.02
72640;BME280;60683;51.730;8.762;2023-07-29T09:58:38;99533.41;;;21.80;65.13
72640;BME280;60683;51.730;8.762;2023-07-29T10:01:07;99534.72;;;21.74;64.70
72640;BME280;60683;51.730;8.762;2023-07-29T10:03:35;99536.63;;;21.91;64.07
72640;BME280;60683;51.730;8.762;2023-07-29T10:06:03;99547.25;;;21.75;64.89
72640;BME280;60683;51.730;8.762;2023-07-29T10:08:31;99537.75;;;21.90;64.13
72640;BME280;60683;51.730;8.762;2023-07-29T10:11:01;99542.75;;;22.13;63.67
72640;BME280;60683;51.730;8.762;2023-07-29T10:13:29;99533.56;;;22.27;62.38
72640;BME280;60683;51.730;8.762;2023-07-29T10:15:56;99530.38;;;22.63;61.08
72640;BME280;60683;51.730;8.762;2023-07-29T10:18:26;99549.28;;;22.47;60.08
72640;BME280;60683;51.730;8.762;2023-07-29T10:20:54;99540.81;;;22.05;57.41
72640;BME280;60683;51.730;8.762;2023-07-29T10:23:24;99551.78;;;21.79;58.25
72640;BME280;60683;51.730;8.762;2023-07-29T10:25:57;99535.97;;;21.85;57.96
72640;BME280;60683;51.730;8.762;2023-07-29T10:28:26;99534.88;;;22.12;59.07
72640;BME280;60683;51.730;8.762;2023-07-29T10:30:56;99539.91;;;22.48;59.04
72640;BME280;60683;51.730;8.762;2023-07-29T10:33:25;99540.69;;;22.57;59.62
72640;BME280;60683;51.730;8.762;2023-07-29T10:35:53;99539.28;;;22.42;56.78
72640;BME280;60683;51.730;8.762;2023-07-29T10:38:22;99533.16;;;22.45;57.52
72640;BME280;60683;51.730;8.762;2023-07-29T10:40:52;99542.75;;;22.22;57.03
72640;BME280;60683;51.730;8.762;2023-07-29T10:43:25;99540.66;;;22.19;57.53
72640;BME280;60683;51.730;8.762;2023-07-29T10:45:55;99557.00;;;22.45;57.27
72640;BME280;60683;51.730;8.762;2023-07-29T10:48:42;99537.50;;;22.55;56.60
72640;BME280;60683;51.730;8.762;2023-07-29T10:51:22;99548.63;;;22.97;55.04
72640;BME280;60683;51.730;8.762;2023-07-29T10:53:52;99552.66;;;22.99;53.93
72640;BME280;60683;51.730;8.762;2023-07-29T10:56:26;99545.97;;;22.71;52.92
72640;BME280;60683;51.730;8.762;2023-07-29T10:58:55;99537.47;;;22.64;53.50
72640;BME280;60683;51.730;8.762;2023-07-29T11:01:28;99542.91;;;22.72;53.72
72640;BME280;60683;51.730;8.762;2023-07-29T11:04:26;99539.19;;;22.77;54.90
72640;BME280;60683;51.730;8.762;2023-07-29T11:09:40;99542.91;;;22.81;53.24
72640;BME280;60683;51.730;8.762;2023-07-29T11:12:35;99541.22;;;22.97;52.51
72640;BME280;60683;51.730;8.762;2023-07-29T11:15:06;99537.25;;;22.77;53.75
72640;BME280;60683;51.730;8.762;2023-07-29T11:17:39;99545.31;;;22.83;53.03
72640;BME280;60683;51.730;8.762;2023-07-29T11:20:09;99547.22;;;23.20;53.23
72640;BME280;60683;51.730;8.762;2023-07-29T11:22:37;99536.50;;;23.06;53.44
72640;BME280;60683;51.730;8.762;2023-07-29T11:25:07;99535.31;;;23.66;52.25
72640;BME280;60683;51.730;8.762;2023-07-29T11:27:35;99543.94;;;23.77;51.73
72640;BME280;60683;51.730;8.762;2023-07-29T11:30:04;99535.66;;;23.65;51.36
72640;BME280;60683;51.730;8.762;2023-07-29T11:32:32;99534.19;;;23.67;51.61
72640;BME280;60683;51.730;8.762;2023-07-29T11:35:04;99535.22;;;23.33;52.37
72640;BME280;60683;51.730;8.762;2023-07-29T11:37:34;99527.16;;;23.58;53.44
72640;BME280;60683;51.730;8.762;2023-07-29T11:40:03;99532.31;;;23.80;51.77
72640;BME280;60683;51.730;8.762;2023-07-29T11:42:31;99518.91;;;24.12;51.25
72640;BME280;60683;51.730;8.762;2023-07-29T11:44:59;99526.94;;;24.17;51.29
72640;BME280;60683;51.730;8.762;2023-07-29T11:47:27;99512.84;;;24.51;50.71
72640;BME280;60683;51.730;8.762;2023-07-29T11:49:58;99508.97;;;24.52;49.36
72640;BME280;60683;51.730;8.762;2023-07-29T11:52:27;99507.25;;;24.60;49.60
72640;BME280;60683;51.730;8.762;2023-07-29T11:54:56;99503.72;;;24.14;51.02
72640;BME280;60683;51.730;8.762;2023-07-29T11:57:24;99505.09;;;24.65;49.29
72640;BME280;60683;51.730;8.762;2023-07-29T11:59:55;99509.34;;;25.12;49.67
72640;BME280;60683;51.730;8.762;2023-07-29T12:02:23;99509.09;;;24.56;49.20
72640;BME280;60683;51.730;8.762;2023-07-29T12:04:52;99511.06;;;24.67;49.18
72640;BME280;60683;51.730;8.762;2023-07-29T12:07:20;99506.84;;;24.94;49.77
72640;BME280;60683;51.730;8.762;2023-07-29T12:09:49;99515.97;;;25.35;48.48
72640;BME280;60683;51.730;8.762;2023-07-29T12:12:18;99517.25;;;25.37;46.49
72640;BME280;60683;51.730;8.762;2023-07-29T12:14:46;99519.06;;;25.33;47.64
72640;BME280;60683;51.730;8.762;2023-07-29T12:17:16;99505.75;;;25.88;46.04
72640;BME280;60683;51.730;8.762;2023-07-29T12:19:43;99504.44;;;25.69;46.38
72640;BME280;60683;51.730;8.762;2023-07-29T12:22:11;99511.63;;;25.34;46.98
72640;BME280;60683;51.730;8.762;2023-07-29T12:24:39;99513.81;;;24.92;48.65
72640;BME280;60683;51.730;8.762;2023-07-29T12:27:10;99512.00;;;24.84;48.47
72640;BME280;60683;51.730;8.762;2023-07-29T12:29:41;99511.72;;;24.52;48.91
72640;BME280;60683;51.730;8.762;2023-07-29T12:32:10;99509.75;;;24.53;49.24
72640;BME280;60683;51.730;8.762;2023-07-29T12:34:38;99508.50;;;24.38;48.82
72640;BME280;60683;51.730;8.762;2023-07-29T12:37:07;99509.66;;;24.37;50.75
72640;BME280;60683;51.730;8.762;2023-07-29T12:39:39;99518.13;;;24.11;50.47
72640;BME280;60683;51.730;8.762;2023-07-29T12:42:07;99515.00;;;24.00;51.30
72640;BME280;60683;51.730;8.762;2023-07-29T12:44:35;99516.50;;;23.77;52.30
72640;BME280;60683;51.730;8.762;2023-07-29T12:47:06;99514.78;;;23.43;52.58
72640;BME280;60683;51.730;8.762;2023-07-29T12:49:34;99516.34;;;23.53;53.58
72640;BME280;60683;51.730;8.762;2023-07-29T12:52:02;99516.00;;;23.33;53.10
72640;BME280;60683;51.730;8.762;2023-07-29T12:54:29;99502.94;;;23.09;53.91
72640;BME280;60683;51.730;8.762;2023-07-29T12:56:57;99499.50;;;23.63;53.06
72640;BME280;60683;51.730;8.762;2023-07-29T12:59:25;99491.94;;;24.14;51.43
72640;BME280;60683;51.730;8.762;2023-07-29T13:01:52;99489.06;;;24.67;50.76
72640;BME280;60683;51.730;8.762;2023-07-29T13:04:21;99492.84;;;24.87;50.12
72640;BME280;60683;51.730;8.762;2023-07-29T13:06:48;99484.00;;;24.45;50.79
72640;BME280;60683;51.730;8.762;2023-07-29T13:09:15;99489.25;;;24.26;51.04